createdAt,value
2022-11-16T00:00:29.846Z,13.40
2022-11-16T00:01:29.827Z,13.60
2022-11-16T00:02:29.843Z,12.30
2022-11-16T00:03:29.844Z,15.10
2022-11-16T00:04:29.809Z,12.40
2022-11-16T00:05:29.801Z,12.00
2022-11-16T00:06:29.784Z,16.50
2022-11-16T00:07:30.842Z,14.60
2022-11-16T00:08:29.965Z,14.80
2022-11-16T00:09:29.794Z,12.10
2022-11-16T00:10:29.760Z,13.70
2022-11-16T00:11:29.758Z,13.50
2022-11-16T00:12:29.745Z,16.20
2022-11-16T00:13:29.737Z,12.00
2022-11-16T00:14:29.760Z,13.20
2022-11-16T00:15:29.724Z,16.10
2022-11-16T00:16:29.720Z,10.60
2022-11-16T00:17:29.705Z,13.90
2022-11-16T00:18:29.890Z,12.90
2022-11-16T00:19:29.722Z,13.80
2022-11-16T00:20:29.683Z,11.30
2022-11-16T00:21:29.675Z,14.70
2022-11-16T00:22:29.673Z,14.10
2022-11-16T00:23:29.662Z,13.30
2022-11-16T00:24:29.676Z,13.00
2022-11-16T00:25:29.645Z,13.10
2022-11-16T00:26:29.641Z,13.70
2022-11-16T00:27:29.628Z,10.50
2022-11-16T00:28:29.663Z,15.40
2022-11-16T00:29:29.640Z,14.10
2022-11-16T00:30:29.610Z,12.60
2022-11-16T00:31:29.599Z,11.10
2022-11-16T00:32:29.586Z,10.80
2022-11-16T00:33:30.589Z,10.00
2022-11-16T00:34:29.600Z,10.80
2022-11-16T00:35:29.571Z,12.00
2022-11-16T00:36:29.561Z,13.70
2022-11-16T00:37:29.560Z,13.90
2022-11-16T00:38:29.559Z,13.90
2022-11-16T00:39:29.571Z,10.50
2022-11-16T00:40:29.539Z,11.10
2022-11-16T00:41:29.528Z,9.90
2022-11-16T00:42:29.521Z,12.50
2022-11-16T00:43:29.518Z,12.80
2022-11-16T00:44:29.528Z,11.80
2022-11-16T00:45:29.500Z,11.10
2022-11-16T00:46:29.491Z,11.80
2022-11-16T00:47:29.483Z,8.90
2022-11-16T00:48:29.478Z,10.30
2022-11-16T00:49:29.487Z,14.50
2022-11-16T00:50:29.461Z,13.30
2022-11-16T00:51:29.447Z,13.20
2022-11-16T00:52:29.442Z,13.30
2022-11-16T00:53:29.425Z,10.80
2022-11-16T00:54:29.450Z,11.10
2022-11-16T00:55:29.412Z,10.90
2022-11-16T00:56:29.405Z,8.80
2022-11-16T00:57:29.398Z,10.60
2022-11-16T00:58:29.409Z,10.50
2022-11-16T00:59:29.408Z,12.00
2022-11-16T01:00:29.378Z,11.20
2022-11-16T01:01:29.456Z,11.40
2022-11-16T01:02:29.355Z,12.10
2022-11-16T01:03:29.352Z,11.00
2022-11-16T01:04:29.379Z,9.90
2022-11-16T01:05:29.335Z,10.50
2022-11-16T01:06:29.328Z,11.30
2022-11-16T01:07:29.388Z,11.10
2022-11-16T01:08:29.309Z,11.10
2022-11-16T01:09:29.329Z,11.30
2022-11-16T01:10:29.300Z,11.50
2022-11-16T01:11:29.284Z,13.00
2022-11-16T01:12:29.279Z,10.30
2022-11-16T01:13:29.270Z,12.50
2022-11-16T01:14:29.291Z,10.20
2022-11-16T01:15:29.258Z,10.70
2022-11-16T01:16:29.245Z,11.30
2022-11-16T01:17:29.237Z,12.30
2022-11-16T01:18:29.232Z,12.20
2022-11-16T01:19:29.250Z,13.60
2022-11-16T01:20:29.219Z,10.70
2022-11-16T01:21:29.211Z,10.80
2022-11-16T01:22:29.204Z,13.60
2022-11-16T01:23:29.192Z,11.00
2022-11-16T01:24:29.215Z,10.40
2022-11-16T01:25:29.184Z,13.00
2022-11-16T01:26:29.168Z,11.70
2022-11-16T01:27:29.158Z,11.80
2022-11-16T01:28:29.148Z,12.40
2022-11-16T01:29:29.169Z,10.40
2022-11-16T01:30:29.137Z,11.30
2022-11-16T01:31:29.126Z,12.80
2022-11-16T01:32:29.121Z,11.00
2022-11-16T01:33:29.111Z,11.90
2022-11-16T01:34:29.133Z,9.40
2022-11-16T01:35:29.092Z,14.20
2022-11-16T01:36:29.087Z,10.20
2022-11-16T01:37:29.078Z,10.90
2022-11-16T01:38:30.128Z,10.60
2022-11-16T01:39:30.090Z,11.00
2022-11-16T01:40:29.055Z,12.50
2022-11-16T01:41:29.050Z,11.00
2022-11-16T01:42:29.042Z,15.50
2022-11-16T01:43:29.033Z,14.00
2022-11-16T01:44:29.049Z,14.10
2022-11-16T01:45:29.017Z,13.70
2022-11-16T01:46:29.013Z,12.70
2022-11-16T01:47:29.007Z,12.40
2022-11-16T01:48:29.023Z,13.00
2022-11-16T01:49:29.016Z,10.80
2022-11-16T01:50:28.985Z,14.00
2022-11-16T01:51:28.975Z,12.60
2022-11-16T01:52:28.972Z,10.30
2022-11-16T01:53:28.960Z,15.30
2022-11-16T01:54:28.977Z,12.20
2022-11-16T01:55:28.945Z,13.30
2022-11-16T01:56:28.935Z,12.80
2022-11-16T01:57:28.932Z,11.90
2022-11-16T01:58:28.918Z,11.10
2022-11-16T01:59:28.937Z,12.40
2022-11-16T02:00:28.907Z,14.10
2022-11-16T02:01:29.023Z,15.50
2022-11-16T02:02:28.895Z,12.00
2022-11-16T02:03:28.880Z,13.80
2022-11-16T02:04:28.906Z,13.20
2022-11-16T02:05:28.866Z,11.60
2022-11-16T02:06:28.859Z,9.80
2022-11-16T02:07:28.881Z,16.20
2022-11-16T02:08:28.840Z,16.00
2022-11-16T02:09:28.865Z,13.10
2022-11-16T02:10:28.829Z,11.30
2022-11-16T02:11:28.816Z,12.60
2022-11-16T02:12:28.814Z,17.20
2022-11-16T02:13:28.799Z,13.60
2022-11-16T02:14:28.827Z,16.00
2022-11-16T02:15:28.785Z,13.00
2022-11-16T02:16:28.776Z,13.70
2022-11-16T02:17:28.769Z,13.60
2022-11-16T02:18:28.764Z,14.00
2022-11-16T02:19:28.753Z,13.10
2022-11-16T02:20:28.772Z,12.00
2022-11-16T02:21:28.738Z,11.40
2022-11-16T02:22:28.732Z,14.80
2022-11-16T02:23:28.732Z,14.10
2022-11-16T02:24:28.754Z,13.50
2022-11-16T02:25:28.710Z,12.50
2022-11-16T02:26:28.707Z,11.80
2022-11-16T02:27:28.693Z,10.80
2022-11-16T02:28:28.690Z,12.40
2022-11-16T02:29:28.681Z,16.20
2022-11-16T02:30:28.697Z,13.50
2022-11-16T02:31:28.670Z,14.00
2022-11-16T02:32:28.661Z,15.90
2022-11-16T02:33:28.654Z,13.00
2022-11-16T02:34:28.647Z,15.30
2022-11-16T02:35:28.663Z,14.50
2022-11-16T02:36:28.625Z,14.10
2022-11-16T02:37:28.621Z,14.10
2022-11-16T02:38:28.614Z,16.50
2022-11-16T02:39:28.605Z,15.40
2022-11-16T02:40:28.621Z,16.80
2022-11-16T02:41:28.590Z,14.40
2022-11-16T02:42:28.580Z,14.50
2022-11-16T02:43:28.573Z,13.80
2022-11-16T02:44:28.568Z,17.40
2022-11-16T02:45:28.585Z,15.60
2022-11-16T02:46:28.559Z,17.50
2022-11-16T02:47:28.551Z,13.10
2022-11-16T02:48:28.545Z,14.40
2022-11-16T02:49:28.530Z,15.40
2022-11-16T02:50:28.551Z,15.20
2022-11-16T02:51:28.519Z,14.40
2022-11-16T02:52:28.514Z,14.20
2022-11-16T02:53:28.504Z,14.40
2022-11-16T02:54:28.491Z,17.70
2022-11-16T02:55:28.516Z,17.00
2022-11-16T02:56:28.505Z,15.40
2022-11-16T02:57:28.475Z,15.60
2022-11-16T02:58:28.468Z,17.40
2022-11-16T02:59:28.459Z,15.40
2022-11-16T03:00:28.477Z,14.90
2022-11-16T03:01:28.493Z,15.60
2022-11-16T03:02:28.439Z,13.60
2022-11-16T03:03:28.423Z,18.90
2022-11-16T03:04:28.417Z,14.40
2022-11-16T03:05:28.437Z,13.80
2022-11-16T03:06:28.401Z,14.80
2022-11-16T03:07:28.457Z,14.10
2022-11-16T03:08:28.390Z,12.60
2022-11-16T03:09:28.387Z,14.30
2022-11-16T03:10:28.398Z,13.70
2022-11-16T03:11:28.364Z,15.30
2022-11-16T03:12:28.354Z,14.70
2022-11-16T03:13:28.351Z,16.00
2022-11-16T03:14:28.343Z,20.60
2022-11-16T03:15:28.363Z,19.10
2022-11-16T03:16:28.336Z,14.80
2022-11-16T03:17:28.324Z,16.10
2022-11-16T03:18:28.312Z,19.90
2022-11-16T03:19:28.303Z,18.60
2022-11-16T03:20:28.320Z,17.60
2022-11-16T03:21:28.290Z,16.40
2022-11-16T03:22:28.283Z,14.20
2022-11-16T03:23:28.277Z,17.60
2022-11-16T03:24:28.264Z,13.00
2022-11-16T03:25:28.281Z,13.20
2022-11-16T03:26:28.248Z,12.80
2022-11-16T03:27:28.241Z,13.50
2022-11-16T03:28:28.238Z,13.50
2022-11-16T03:29:28.226Z,17.00
2022-11-16T03:30:28.246Z,15.50
2022-11-16T03:31:28.212Z,19.50
2022-11-16T03:32:28.204Z,17.90
2022-11-16T03:33:28.198Z,18.30
2022-11-16T03:34:28.187Z,19.00
2022-11-16T03:35:28.211Z,17.40
2022-11-16T03:36:28.173Z,19.10
2022-11-16T03:37:28.161Z,17.30
2022-11-16T03:38:28.154Z,17.70
2022-11-16T03:39:28.151Z,20.60
2022-11-16T03:40:28.166Z,19.70
2022-11-16T03:41:28.133Z,16.00
2022-11-16T03:42:28.130Z,16.80
2022-11-16T03:43:28.125Z,18.80
2022-11-16T03:44:28.112Z,16.30
2022-11-16T03:45:28.133Z,17.40
2022-11-16T03:46:28.092Z,16.70
2022-11-16T03:47:28.084Z,17.80
2022-11-16T03:48:28.070Z,16.40
2022-11-16T03:49:29.074Z,18.30
2022-11-16T03:50:28.095Z,17.50
2022-11-16T03:51:28.059Z,20.00
2022-11-16T03:52:28.052Z,21.60
2022-11-16T03:53:28.042Z,19.70
2022-11-16T03:54:28.031Z,19.80
2022-11-16T03:55:28.026Z,21.20
2022-11-16T03:56:28.044Z,18.50
2022-11-16T03:57:28.014Z,17.20
2022-11-16T03:58:28.004Z,19.10
2022-11-16T03:59:27.999Z,18.50
2022-11-16T04:00:27.994Z,21.00
2022-11-16T04:01:28.065Z,23.20
2022-11-16T04:02:27.979Z,18.10
2022-11-16T04:03:27.970Z,18.30
2022-11-16T04:04:27.965Z,16.20
2022-11-16T04:05:27.955Z,20.00
2022-11-16T04:06:27.970Z,19.00
2022-11-16T04:07:28.040Z,16.90
2022-11-16T04:08:27.932Z,19.00
2022-11-16T04:09:27.922Z,17.30
2022-11-16T04:10:27.918Z,20.40
2022-11-16T04:11:27.931Z,21.40
2022-11-16T04:12:27.898Z,20.30
2022-11-16T04:13:27.896Z,19.00
2022-11-16T04:14:27.884Z,19.90
2022-11-16T04:15:27.873Z,18.40
2022-11-16T04:16:27.893Z,20.30
2022-11-16T04:17:27.857Z,19.90
2022-11-16T04:18:27.856Z,20.30
2022-11-16T04:19:27.842Z,17.30
2022-11-16T04:20:27.837Z,18.90
2022-11-16T04:21:27.850Z,18.40
2022-11-16T04:22:27.819Z,19.00
2022-11-16T04:23:27.823Z,20.60
2022-11-16T04:24:27.803Z,18.00
2022-11-16T04:25:27.797Z,16.50
2022-11-16T04:26:27.811Z,18.90
2022-11-16T04:27:27.777Z,16.20
2022-11-16T04:28:27.775Z,16.60
2022-11-16T04:29:27.760Z,18.00
2022-11-16T04:30:27.750Z,15.80
2022-11-16T04:31:27.771Z,16.90
2022-11-16T04:32:27.739Z,17.00
2022-11-16T04:33:27.730Z,17.50
2022-11-16T04:34:27.722Z,19.00
2022-11-16T04:35:27.716Z,17.80
2022-11-16T04:36:27.730Z,18.90
2022-11-16T04:37:27.702Z,20.00
2022-11-16T04:38:27.689Z,17.90
2022-11-16T04:39:27.683Z,19.10
2022-11-16T04:40:27.682Z,20.10
2022-11-16T04:41:27.699Z,18.80
2022-11-16T04:42:27.665Z,19.50
2022-11-16T04:43:27.652Z,20.60
2022-11-16T04:44:30.068Z,18.70
2022-11-16T04:45:28.640Z,21.80
2022-11-16T04:46:27.661Z,19.10
2022-11-16T04:47:27.626Z,20.40
2022-11-16T04:48:27.614Z,23.00
2022-11-16T04:49:27.602Z,21.50
2022-11-16T04:50:27.593Z,19.80
2022-11-16T04:51:27.598Z,17.20
2022-11-16T04:52:27.610Z,22.10
2022-11-16T04:53:27.578Z,23.20
2022-11-16T04:54:27.572Z,20.60
2022-11-16T04:55:27.563Z,23.80
2022-11-16T04:56:27.563Z,18.50
2022-11-16T04:57:27.567Z,20.60
2022-11-16T04:58:27.542Z,22.30
2022-11-16T04:59:27.534Z,21.50
2022-11-16T05:00:27.523Z,23.60
2022-11-16T05:01:27.561Z,18.80
2022-11-16T05:02:27.539Z,22.20
2022-11-16T05:03:27.502Z,23.10
2022-11-16T05:04:27.490Z,20.80
2022-11-16T05:05:27.481Z,20.50
2022-11-16T05:06:27.479Z,21.70
2022-11-16T05:07:27.575Z,24.00
2022-11-16T05:08:27.464Z,20.80
2022-11-16T05:09:27.446Z,22.40
2022-11-16T05:10:28.446Z,23.90
2022-11-16T05:11:27.438Z,23.60
2022-11-16T05:12:27.451Z,23.20
2022-11-16T05:13:27.427Z,25.10
2022-11-16T05:14:27.417Z,23.90
2022-11-16T05:15:27.406Z,23.40
2022-11-16T05:16:27.395Z,22.30
2022-11-16T05:17:27.420Z,23.30
2022-11-16T05:18:27.379Z,23.80
2022-11-16T05:19:27.374Z,21.70
2022-11-16T05:20:27.363Z,26.70
2022-11-16T05:21:27.359Z,22.20
2022-11-16T05:22:27.380Z,25.20
2022-11-16T05:23:27.341Z,24.80
2022-11-16T05:24:27.336Z,23.60
2022-11-16T05:25:28.523Z,23.30
2022-11-16T05:26:27.318Z,23.30
2022-11-16T05:27:27.337Z,26.00
2022-11-16T05:28:27.313Z,25.90
2022-11-16T05:29:27.299Z,20.80
2022-11-16T05:30:27.289Z,23.10
2022-11-16T05:31:27.280Z,26.00
2022-11-16T05:32:27.303Z,25.60
2022-11-16T05:33:27.267Z,24.60
2022-11-16T05:34:27.260Z,26.60
2022-11-16T05:35:27.261Z,23.90
2022-11-16T05:36:27.243Z,23.00
2022-11-16T05:37:27.272Z,24.50
2022-11-16T05:38:27.232Z,26.20
2022-11-16T05:39:27.219Z,25.80
2022-11-16T05:40:27.216Z,25.50
2022-11-16T05:41:27.213Z,23.10
2022-11-16T05:42:27.228Z,26.40
2022-11-16T05:43:27.191Z,24.00
2022-11-16T05:44:27.189Z,26.30
2022-11-16T05:45:27.175Z,23.20
2022-11-16T05:46:27.171Z,23.60
2022-11-16T05:47:27.192Z,26.00
2022-11-16T05:48:27.157Z,22.40
2022-11-16T05:49:27.136Z,24.30
2022-11-16T05:50:27.132Z,21.60
2022-11-16T05:51:27.126Z,24.50
2022-11-16T05:52:27.120Z,27.30
2022-11-16T05:53:27.139Z,22.90
2022-11-16T05:54:27.100Z,22.20
2022-11-16T05:55:27.097Z,24.00
2022-11-16T05:56:27.118Z,25.50
2022-11-16T05:57:27.078Z,20.30
2022-11-16T05:58:27.100Z,24.50
2022-11-16T05:59:27.062Z,24.70
2022-11-16T06:00:27.064Z,27.10
2022-11-16T06:01:27.044Z,23.20
2022-11-16T06:02:27.048Z,21.30
2022-11-16T06:03:27.110Z,21.10
2022-11-16T06:04:27.021Z,20.30
2022-11-16T06:05:27.017Z,18.70
2022-11-16T06:06:27.012Z,20.70
2022-11-16T06:07:27.050Z,23.80
2022-11-16T06:08:27.024Z,20.90
2022-11-16T06:09:26.987Z,24.20
2022-11-16T06:10:26.987Z,22.60
2022-11-16T06:11:31.392Z,24.10
2022-11-16T06:12:28.964Z,21.50
2022-11-16T06:13:26.992Z,22.40
2022-11-16T06:14:26.952Z,24.40
2022-11-16T06:15:26.950Z,20.70
2022-11-16T06:16:27.186Z,24.00
2022-11-16T06:17:26.931Z,22.40
2022-11-16T06:18:26.946Z,22.10
2022-11-16T06:19:32.030Z,19.60
2022-11-16T06:20:28.906Z,21.10
2022-11-16T06:21:26.900Z,23.90
2022-11-16T06:22:26.889Z,21.80
2022-11-16T06:23:26.907Z,22.00
2022-11-16T06:24:26.872Z,19.80
2022-11-16T06:25:26.868Z,23.30
2022-11-16T06:26:26.859Z,25.40
2022-11-16T06:27:26.849Z,24.40
2022-11-16T06:28:26.869Z,28.20
2022-11-16T06:29:26.839Z,26.20
2022-11-16T06:30:26.828Z,24.30
2022-11-16T06:31:26.818Z,22.10
2022-11-16T06:32:26.886Z,23.20
2022-11-16T06:33:29.666Z,28.10
2022-11-16T06:34:28.799Z,25.20
2022-11-16T06:35:26.790Z,23.00
2022-11-16T06:36:26.773Z,23.20
2022-11-16T06:37:26.771Z,25.40
2022-11-16T06:38:26.788Z,25.80
2022-11-16T06:39:26.762Z,24.80
2022-11-16T06:40:26.753Z,23.10
2022-11-16T06:41:26.751Z,25.40
2022-11-16T06:42:26.739Z,22.60
2022-11-16T06:43:26.778Z,21.50
2022-11-16T06:44:26.724Z,21.70
2022-11-16T06:45:26.716Z,24.10
2022-11-16T06:46:26.705Z,23.10
2022-11-16T06:47:26.695Z,25.50
2022-11-16T06:48:26.747Z,24.40
2022-11-16T06:49:26.690Z,22.90
2022-11-16T06:50:26.677Z,20.60
2022-11-16T06:51:26.668Z,22.80
2022-11-16T06:52:26.658Z,26.40
2022-11-16T06:53:29.405Z,22.40
2022-11-16T06:54:27.647Z,24.70
2022-11-16T06:55:26.628Z,20.70
2022-11-16T06:56:26.626Z,21.20
2022-11-16T06:57:26.615Z,24.00
2022-11-16T06:58:26.637Z,22.80
2022-11-16T06:59:26.610Z,20.80
2022-11-16T07:00:26.599Z,22.40
2022-11-16T07:01:26.641Z,23.20
2022-11-16T07:02:26.581Z,21.90
2022-11-16T07:03:26.572Z,22.60
2022-11-16T07:04:26.662Z,21.60
2022-11-16T07:05:26.561Z,23.00
2022-11-16T07:06:26.553Z,26.90
2022-11-16T07:07:26.569Z,23.10
2022-11-16T07:08:26.533Z,21.10
2022-11-16T07:09:26.548Z,23.10
2022-11-16T07:10:26.518Z,24.80
2022-11-16T07:11:26.512Z,22.80
2022-11-16T07:12:26.502Z,21.70
2022-11-16T07:13:26.496Z,20.90
2022-11-16T07:14:26.509Z,22.20
2022-11-16T07:15:26.473Z,22.50
2022-11-16T07:16:26.478Z,22.20
2022-11-16T07:17:26.464Z,20.50
2022-11-16T07:18:26.457Z,21.60
2022-11-16T07:19:26.476Z,18.60
2022-11-16T07:20:26.504Z,22.30
2022-11-16T07:21:27.433Z,21.90
2022-11-16T07:22:27.424Z,22.50
2022-11-16T07:23:26.416Z,21.60
2022-11-16T07:24:26.437Z,24.60
2022-11-16T07:25:26.408Z,21.50
2022-11-16T07:26:26.426Z,21.80
2022-11-16T07:27:26.389Z,22.70
2022-11-16T07:28:26.382Z,20.90
2022-11-16T07:29:26.400Z,21.20
2022-11-16T07:30:26.376Z,20.60
2022-11-16T07:31:26.359Z,21.40
2022-11-16T07:32:26.353Z,19.00
2022-11-16T07:33:26.347Z,23.00
2022-11-16T07:34:26.358Z,20.60
2022-11-16T07:35:26.323Z,23.40
2022-11-16T07:36:26.418Z,23.90
2022-11-16T07:37:26.331Z,24.00
2022-11-16T07:38:26.305Z,22.90
2022-11-16T07:39:26.321Z,20.90
2022-11-16T07:40:26.284Z,22.50
2022-11-16T07:41:26.278Z,21.00
2022-11-16T07:42:26.264Z,21.50
2022-11-16T07:43:26.258Z,30.80
2022-11-16T07:44:26.282Z,24.90
2022-11-16T07:45:26.248Z,23.10
2022-11-16T07:47:28.230Z,25.70
2022-11-16T07:48:26.217Z,21.40
2022-11-16T07:49:26.231Z,20.90
2022-11-16T07:50:26.203Z,22.70
2022-11-16T07:51:26.191Z,21.70
2022-11-16T07:52:26.272Z,21.80
2022-11-16T07:53:26.179Z,21.10
2022-11-16T07:54:26.236Z,20.00
2022-11-16T07:55:26.169Z,19.50
2022-11-16T07:56:26.161Z,19.40
2022-11-16T07:57:26.146Z,20.50
2022-11-16T07:58:26.140Z,21.00
2022-11-16T07:59:26.159Z,19.60
2022-11-16T08:00:26.127Z,19.30
2022-11-16T08:01:26.166Z,19.40
2022-11-16T08:02:26.118Z,18.70
2022-11-16T08:03:26.102Z,18.10
2022-11-16T08:04:26.121Z,17.80
2022-11-16T08:05:26.087Z,19.50
2022-11-16T08:06:26.077Z,21.60
2022-11-16T08:07:26.088Z,20.00
2022-11-16T08:08:26.134Z,24.40
2022-11-16T08:09:26.079Z,20.90
2022-11-16T08:10:26.096Z,22.50
2022-11-16T08:11:26.045Z,21.90
2022-11-16T08:12:26.030Z,24.50
2022-11-16T08:13:26.020Z,20.10
2022-11-16T08:14:26.038Z,19.70
2022-11-16T08:15:26.006Z,22.40
2022-11-16T08:16:26.003Z,24.50
2022-11-16T08:17:25.991Z,20.70
2022-11-16T08:18:25.976Z,22.20
2022-11-16T08:19:25.996Z,20.80
2022-11-16T08:20:25.962Z,23.70
2022-11-16T08:21:25.948Z,21.20
2022-11-16T08:22:26.948Z,21.50
2022-11-16T08:23:25.939Z,20.10
2022-11-16T08:24:26.030Z,20.80
2022-11-16T08:25:25.923Z,22.70
2022-11-16T08:26:25.921Z,18.60
2022-11-16T08:27:25.906Z,18.60
2022-11-16T08:28:25.899Z,19.10
2022-11-16T08:29:25.922Z,19.40
2022-11-16T08:30:25.887Z,19.60
2022-11-16T08:31:25.869Z,17.60
2022-11-16T08:32:25.868Z,17.50
2022-11-16T08:33:25.857Z,18.70
2022-11-16T08:34:25.874Z,19.20
2022-11-16T08:35:25.843Z,18.70
2022-11-16T08:36:25.838Z,17.70
2022-11-16T08:37:25.828Z,19.10
2022-11-16T08:38:25.823Z,17.00
2022-11-16T08:39:25.807Z,18.20
2022-11-16T08:40:25.903Z,20.40
2022-11-16T08:41:25.796Z,19.70
2022-11-16T08:42:25.789Z,18.20
2022-11-16T08:43:25.779Z,21.30
2022-11-16T08:44:25.770Z,16.70
2022-11-16T08:45:25.791Z,18.50
2022-11-16T08:46:25.758Z,19.00
2022-11-16T08:47:25.744Z,22.60
2022-11-16T08:48:25.722Z,19.30
2022-11-16T08:49:26.729Z,19.20
2022-11-16T08:50:25.798Z,18.80
2022-11-16T08:51:25.720Z,20.60
2022-11-16T08:52:25.731Z,18.40
2022-11-16T08:53:25.703Z,18.80
2022-11-16T08:54:25.690Z,20.30
2022-11-16T08:55:25.708Z,19.00
2022-11-16T08:56:25.746Z,19.20
2022-11-16T08:57:25.669Z,17.80
2022-11-16T08:58:25.660Z,22.80
2022-11-16T08:59:25.652Z,19.10
2022-11-16T09:00:25.670Z,22.60
2022-11-16T09:01:25.692Z,20.00
2022-11-16T09:02:25.879Z,17.70
2022-11-16T09:03:25.616Z,20.90
2022-11-16T09:04:25.611Z,16.40
2022-11-16T09:05:25.629Z,17.70
2022-11-16T09:06:25.604Z,18.40
2022-11-16T09:07:25.658Z,17.50
2022-11-16T09:08:25.582Z,20.60
2022-11-16T09:09:25.567Z,18.20
2022-11-16T09:10:25.594Z,19.70
2022-11-16T09:11:25.557Z,17.40
2022-11-16T09:12:25.544Z,17.30
2022-11-16T09:13:25.543Z,16.30
2022-11-16T09:14:25.524Z,18.30
2022-11-16T09:15:26.546Z,17.70
2022-11-16T09:16:25.524Z,16.80
2022-11-16T09:17:25.515Z,19.00
2022-11-16T09:18:25.499Z,19.50
2022-11-16T09:19:25.495Z,19.50
2022-11-16T09:20:25.513Z,17.60
2022-11-16T09:21:25.480Z,18.40
2022-11-16T09:22:25.476Z,16.50
2022-11-16T09:23:25.899Z,20.90
2022-11-16T09:24:26.463Z,18.50
2022-11-16T09:25:25.450Z,19.30
2022-11-16T09:26:25.468Z,19.40
2022-11-16T09:27:25.433Z,22.50
2022-11-16T09:28:25.426Z,21.30
2022-11-16T09:29:25.418Z,20.40
2022-11-16T09:30:25.418Z,21.50
2022-11-16T09:31:25.430Z,22.60
2022-11-16T09:32:25.389Z,19.90
2022-11-16T09:33:25.381Z,22.10
2022-11-16T09:34:25.375Z,20.90
2022-11-16T09:35:25.378Z,20.00
2022-11-16T09:36:25.382Z,23.20
2022-11-16T09:37:25.355Z,19.50
2022-11-16T09:38:40.174Z,17.80
2022-11-16T09:39:31.094Z,19.20
2022-11-16T09:40:26.333Z,17.20
2022-11-16T09:41:25.347Z,22.00
2022-11-16T09:42:25.319Z,21.90
2022-11-16T09:43:25.309Z,20.10
2022-11-16T09:44:25.375Z,19.40
2022-11-16T09:45:25.293Z,18.80
2022-11-16T09:46:25.312Z,19.70
2022-11-16T09:47:25.278Z,22.20
2022-11-16T09:48:25.277Z,19.40
2022-11-16T09:49:25.283Z,18.60
2022-11-16T09:50:25.257Z,20.20
2022-11-16T09:51:25.273Z,18.80
2022-11-16T09:52:25.234Z,17.70
2022-11-16T09:53:25.232Z,16.70
2022-11-16T09:54:25.220Z,17.80
2022-11-16T09:55:25.224Z,16.80
2022-11-16T09:56:25.234Z,19.30
2022-11-16T09:57:25.206Z,19.00
2022-11-16T09:58:25.197Z,15.40
2022-11-16T09:59:25.180Z,16.80
2022-11-16T10:00:25.309Z,17.60
2022-11-16T10:01:25.237Z,16.90
2022-11-16T10:02:25.163Z,18.60
2022-11-16T10:03:25.163Z,22.10
2022-11-16T10:04:25.151Z,17.50
2022-11-16T10:05:25.135Z,21.30
2022-11-16T10:06:25.191Z,18.10
2022-11-16T10:07:25.143Z,18.70
2022-11-16T10:08:25.114Z,18.70
2022-11-16T10:09:25.113Z,19.30
2022-11-16T10:10:25.093Z,18.10
2022-11-16T10:11:25.123Z,15.70
2022-11-16T10:12:25.078Z,15.80
2022-11-16T10:13:25.072Z,17.30
2022-11-16T10:14:25.072Z,17.20
2022-11-16T10:15:25.062Z,16.70
2022-11-16T10:16:25.095Z,14.80
2022-11-16T10:17:25.066Z,14.40
2022-11-16T10:18:25.033Z,14.60
2022-11-16T10:19:25.055Z,13.00
2022-11-16T10:20:30.219Z,15.10
2022-11-16T10:21:27.027Z,14.70
2022-11-16T10:22:24.999Z,13.30
2022-11-16T10:23:25.023Z,13.70
2022-11-16T10:24:24.995Z,12.10
2022-11-16T10:25:24.983Z,14.00
2022-11-16T10:26:24.968Z,13.30
2022-11-16T10:27:24.984Z,12.10
2022-11-16T10:28:24.953Z,11.70
2022-11-16T10:29:24.944Z,12.40
2022-11-16T10:30:24.940Z,10.90
2022-11-16T10:31:24.927Z,11.10
2022-11-16T10:32:25.026Z,12.30
2022-11-16T10:33:24.911Z,10.80
2022-11-16T10:34:24.904Z,11.20
2022-11-16T10:35:24.896Z,10.80
2022-11-16T10:36:24.887Z,9.20
2022-11-16T10:37:24.904Z,9.30
2022-11-16T10:38:24.874Z,7.20
2022-11-16T10:39:24.860Z,7.90
2022-11-16T10:40:24.855Z,9.50
2022-11-16T10:41:24.845Z,7.10
2022-11-16T10:42:24.865Z,7.50
2022-11-16T10:43:24.833Z,6.50
2022-11-16T10:44:24.839Z,8.00
2022-11-16T10:45:24.815Z,6.30
2022-11-16T10:46:24.808Z,6.40
2022-11-16T10:47:28.189Z,6.80
2022-11-16T10:48:25.833Z,4.60
2022-11-16T10:49:24.779Z,6.30
2022-11-16T10:50:24.775Z,5.10
2022-11-16T10:51:24.775Z,6.20
2022-11-16T10:52:24.778Z,5.30
2022-11-16T10:53:24.747Z,6.40
2022-11-16T10:54:24.738Z,5.00
2022-11-16T10:55:24.724Z,5.70
2022-11-16T10:56:24.722Z,3.50
2022-11-16T10:57:24.738Z,4.70
2022-11-16T10:58:24.709Z,5.00
2022-11-16T10:59:24.701Z,5.50
2022-11-16T11:00:24.698Z,7.20
2022-11-16T11:01:24.712Z,2.40
2022-11-16T11:02:24.698Z,5.30
2022-11-16T11:03:24.669Z,4.90
2022-11-16T11:04:24.684Z,7.50
2022-11-16T11:05:24.648Z,5.40
2022-11-16T11:06:24.641Z,5.30
2022-11-16T11:07:24.714Z,6.60
2022-11-16T11:08:24.625Z,4.40
2022-11-16T11:09:24.618Z,7.50
2022-11-16T11:10:25.072Z,7.30
2022-11-16T11:11:24.607Z,4.20
2022-11-16T11:12:24.626Z,3.50
2022-11-16T11:13:24.585Z,5.20
2022-11-16T11:14:24.580Z,7.30
2022-11-16T11:15:26.456Z,4.90
2022-11-16T11:16:25.599Z,3.10
2022-11-16T11:17:24.573Z,6.00
2022-11-16T11:18:24.590Z,5.80
2022-11-16T11:19:24.552Z,5.00
2022-11-16T11:20:24.605Z,3.20
2022-11-16T11:21:24.520Z,3.30
2022-11-16T11:22:24.516Z,4.00
2022-11-16T11:23:24.541Z,3.80
2022-11-16T11:25:26.498Z,6.30
2022-11-16T11:26:24.489Z,4.90
2022-11-16T11:27:24.581Z,4.40
2022-11-16T11:28:24.507Z,4.10
2022-11-16T11:29:24.464Z,7.70
2022-11-16T11:30:24.460Z,6.90
2022-11-16T11:31:24.452Z,3.70
2022-11-16T11:32:24.865Z,3.90
2022-11-16T11:33:25.461Z,5.50
2022-11-16T11:34:24.425Z,5.10
2022-11-16T11:35:24.414Z,5.90
2022-11-16T11:36:24.490Z,4.40
2022-11-16T11:37:24.419Z,4.60
2022-11-16T11:38:24.426Z,4.10
2022-11-16T11:39:24.453Z,10.60
2022-11-16T11:40:24.376Z,6.30
2022-11-16T11:41:24.375Z,7.90
2022-11-16T11:42:24.369Z,6.80
2022-11-16T11:43:24.414Z,7.20
2022-11-16T11:44:24.357Z,5.10
2022-11-16T11:45:24.341Z,4.20
2022-11-16T11:46:30.664Z,5.90
2022-11-16T11:48:26.347Z,5.70
2022-11-16T11:49:27.921Z,4.80
2022-11-16T11:50:25.312Z,9.80
2022-11-16T11:51:24.297Z,5.10
2022-11-16T11:52:24.368Z,8.90
2022-11-16T11:53:24.310Z,3.20
2022-11-16T11:54:24.279Z,4.30
2022-11-16T11:55:24.278Z,4.70
2022-11-16T11:56:24.261Z,3.80
2022-11-16T11:57:24.274Z,5.90
2022-11-16T11:58:24.420Z,5.00
2022-11-16T11:59:24.241Z,7.40
2022-11-16T12:00:24.238Z,3.80
2022-11-16T12:01:25.690Z,5.70
2022-11-16T12:02:25.211Z,6.20
2022-11-16T12:03:24.277Z,2.90
2022-11-16T12:04:24.201Z,4.30
2022-11-16T12:05:24.195Z,4.50
2022-11-16T12:06:24.180Z,3.20
2022-11-16T12:07:24.301Z,4.20
2022-11-16T12:08:24.250Z,4.90
2022-11-16T12:09:24.188Z,4.90
2022-11-16T12:10:24.149Z,4.60
2022-11-16T12:11:24.144Z,5.10
2022-11-16T12:12:24.133Z,4.10
2022-11-16T12:13:24.127Z,7.20
2022-11-16T12:14:24.145Z,4.70
2022-11-16T12:15:24.116Z,7.50
2022-11-16T12:16:24.106Z,6.90
2022-11-16T12:17:24.096Z,4.40
2022-11-16T12:18:24.088Z,6.00
2022-11-16T12:19:24.104Z,7.70
2022-11-16T12:20:24.077Z,5.40
2022-11-16T12:21:24.066Z,6.40
2022-11-16T12:22:24.054Z,7.70
2022-11-16T12:23:24.051Z,4.60
2022-11-16T12:24:24.153Z,6.20
2022-11-16T12:25:24.037Z,6.60
2022-11-16T12:26:24.034Z,7.00
2022-11-16T12:27:24.075Z,5.10
2022-11-16T12:28:24.009Z,7.50
2022-11-16T12:29:24.022Z,4.40
2022-11-16T12:30:25.002Z,6.50
2022-11-16T12:31:23.991Z,4.40
2022-11-16T12:32:23.984Z,6.20
2022-11-16T12:33:24.025Z,6.00
2022-11-16T12:34:23.994Z,4.20
2022-11-16T12:35:23.960Z,4.20
2022-11-16T12:36:23.952Z,4.20
2022-11-16T12:37:23.940Z,5.80
2022-11-16T12:38:26.398Z,3.60
2022-11-16T12:39:24.951Z,7.80
2022-11-16T12:40:23.913Z,6.40
2022-11-16T12:41:23.906Z,6.20
2022-11-16T12:42:23.898Z,6.00
2022-11-16T12:43:23.892Z,7.20
2022-11-16T12:44:23.907Z,5.00
2022-11-16T12:45:29.018Z,6.10
2022-11-16T12:46:25.864Z,5.90
2022-11-16T12:47:23.865Z,5.60
2022-11-16T12:48:23.853Z,5.10
2022-11-16T12:49:23.869Z,2.70
2022-11-16T12:50:23.836Z,4.50
2022-11-16T12:51:27.543Z,4.60
2022-11-16T12:52:25.817Z,5.00
2022-11-16T12:53:23.811Z,6.80
2022-11-16T12:54:23.825Z,5.10
2022-11-16T12:55:26.818Z,5.80
2022-11-16T12:56:24.866Z,7.50
2022-11-16T12:57:23.779Z,7.80
2022-11-16T12:58:23.771Z,2.40
2022-11-16T12:59:23.787Z,6.80
2022-11-16T13:00:23.752Z,6.40